East Tawas, Michigan
Current Conditions -  °F | °C
As of 9:13 PM on Sunday 25 Jan 2015 (Local Time) from KOSC Reporting Station
Light Snow Light Snow  
Wind Chill:   Ceiling: 2200
Heat Index: 14°   Visibility: 5mi
Dew Point: 10°   Wind: 6mph
Humidity: 82%   Direction: 340°NNW
Pressure: 30.07"   Gusts: NA
Location:  44.28°N, 83.49°W
Report Text: KOSC 260213Z AUTO 34005KT 5SM -SN OVC022 M10/M12 A3007 RMK AO2 T11001125
Loading
Personal Weather Stations






























Interactive Weather Map New forecast layout! Learn more

10-Day Weather Forecast

Advertisements
Track Severe Weather on mobile